Lookeba, Oklahoma
Current Conditions -  °F | °C
As of 4:35 AM on Friday 21 Nov 2014 (Local Time) from KOJA Reporting Station
Overcast Overcast  
Wind Chill: 34°   Ceiling: 600
Heat Index: 37°   Visibility: 10mi
Dew Point: 32°   Wind: 5mph
Humidity: 81%   Direction: 10°N
Pressure: 30.03"   Gusts: NA
Location:  35.36°N, 98.37°W
Report Text: KOJA 211035Z AUTO 01004KT 10SM OVC006 03/00 A3003 RMK AO2
Loading
Personal Weather Stations






























Interactive Weather Map New forecast layout! Learn more

10-Day Weather Forecast

Advertisements
Track Severe Weather on mobile